createdAt,value
2022-10-25T00:01:21.808Z,50.36
2022-10-25T00:06:23.362Z,50.25
2022-10-25T00:11:26.500Z,50.24
2022-10-25T00:16:29.802Z,50.06
2022-10-25T00:21:31.357Z,50.33
2022-10-25T00:26:32.713Z,50.24
2022-10-25T00:31:34.119Z,50.31
2022-10-25T00:36:35.510Z,50.14
2022-10-25T00:41:37.029Z,50.48
2022-10-25T00:46:38.420Z,50.38
2022-10-25T00:51:42.777Z,50.29
2022-10-25T00:56:44.189Z,50.23
2022-10-25T01:01:45.670Z,50.26
2022-10-25T01:06:48.944Z,50.50
2022-10-25T01:11:50.362Z,50.32
2022-10-25T01:17:29.105Z,50.36
2022-10-25T01:22:43.233Z,50.51
2022-10-25T01:27:51.153Z,50.30
2022-10-25T01:33:22.717Z,50.42
2022-10-25T01:38:36.921Z,50.22
2022-10-25T01:43:50.829Z,50.38
2022-10-25T01:48:58.189Z,50.29
2022-10-25T01:53:59.552Z,50.32
2022-10-25T01:59:14.041Z,50.32
2022-10-25T02:04:27.876Z,50.38
2022-10-25T02:10:03.493Z,50.40
2022-10-25T02:15:17.785Z,50.31
2022-10-25T02:20:19.208Z,50.09
2022-10-25T02:25:21.110Z,50.42
2022-10-25T02:30:22.467Z,50.27
2022-10-25T02:35:23.833Z,50.40
2022-10-25T02:40:25.187Z,50.39
2022-10-25T02:45:26.546Z,50.20
2022-10-25T02:50:27.922Z,50.26
2022-10-25T02:55:29.293Z,50.24
2022-10-25T03:00:30.678Z,50.18
2022-10-25T03:05:32.070Z,50.34
2022-10-25T03:10:36.663Z,50.24
2022-10-25T03:15:38.028Z,50.35
2022-10-25T03:20:39.424Z,50.31
2022-10-25T03:25:40.829Z,50.56
2022-10-25T03:30:42.533Z,50.15
2022-10-25T03:35:43.896Z,50.13
2022-10-25T03:40:45.253Z,50.25
2022-10-25T03:45:46.612Z,50.05
2022-10-25T03:50:48.011Z,50.14
2022-10-25T03:55:49.783Z,50.21
2022-10-25T04:00:51.195Z,50.01
2022-10-25T04:05:52.615Z,50.23
2022-10-25T04:10:53.976Z,49.91
2022-10-25T04:15:55.337Z,50.00
2022-10-25T04:20:57.996Z,50.04
2022-10-25T04:25:59.416Z,50.11
2022-10-25T04:31:00.768Z,50.14
2022-10-25T04:36:02.159Z,50.27
2022-10-25T04:41:03.525Z,50.34
2022-10-25T04:46:04.917Z,50.62
2022-10-25T04:51:06.291Z,50.30
2022-10-25T04:56:12.385Z,50.24
2022-10-25T05:01:15.033Z,49.93
2022-10-25T05:06:18.149Z,49.92
2022-10-25T05:11:21.528Z,49.68
2022-10-25T05:16:24.402Z,49.56
2022-10-25T05:21:28.291Z,49.45
2022-10-25T05:26:30.093Z,49.71
2022-10-25T05:31:31.573Z,49.47
2022-10-25T05:36:33.310Z,49.54
2022-10-25T05:41:37.018Z,49.38
2022-10-25T05:46:38.687Z,49.56
2022-10-25T05:51:40.041Z,49.28
2022-10-25T05:56:41.719Z,48.76
2022-10-25T06:01:44.435Z,49.16
2022-10-25T06:06:46.609Z,49.33
2022-10-25T06:11:47.964Z,49.07
2022-10-25T06:16:49.357Z,49.07
2022-10-25T06:21:50.747Z,49.16
2022-10-25T06:26:52.114Z,49.28
2022-10-25T06:31:53.516Z,49.20
2022-10-25T06:36:54.870Z,49.05
2022-10-25T06:41:56.234Z,48.96
2022-10-25T06:52:21.556Z,48.82
2022-10-25T06:57:22.937Z,48.91
2022-10-25T07:02:24.428Z,48.90
2022-10-25T07:07:25.896Z,48.71
2022-10-25T07:12:27.253Z,48.75
2022-10-25T07:17:28.616Z,48.71
2022-10-25T07:22:29.973Z,48.67
2022-10-25T07:27:32.099Z,48.78
2022-10-25T07:32:33.481Z,48.71
2022-10-25T07:37:34.848Z,48.69
2022-10-25T07:42:36.204Z,48.73
2022-10-25T07:47:37.569Z,48.38
2022-10-25T07:52:38.990Z,48.54
2022-10-25T07:57:40.393Z,48.74
2022-10-25T08:02:42.602Z,48.49
2022-10-25T08:07:44.133Z,48.49
2022-10-25T08:12:45.646Z,47.88
2022-10-25T08:17:47.213Z,48.06
2022-10-25T08:22:48.713Z,48.00
2022-10-25T08:27:50.090Z,48.25
2022-10-25T08:32:51.616Z,47.96
2022-10-25T08:37:53.021Z,48.01
2022-10-25T08:43:19.114Z,47.88
2022-10-25T08:48:21.896Z,48.12
2022-10-25T08:53:26.005Z,47.96
2022-10-25T08:58:33.345Z,47.97
2022-10-25T09:03:34.754Z,47.85
2022-10-25T09:09:15.830Z,48.24
2022-10-25T09:14:32.332Z,48.17
2022-10-25T09:19:42.462Z,48.15
2022-10-25T09:24:55.376Z,48.08
2022-10-25T09:30:05.088Z,48.25
2022-10-25T09:35:20.788Z,48.11
2022-10-25T09:45:30.301Z,48.13
2022-10-25T09:50:44.354Z,47.72
2022-10-25T09:55:58.262Z,47.78
2022-10-25T10:01:04.580Z,47.82
2022-10-25T10:06:15.963Z,47.91
2022-10-25T10:16:23.824Z,47.86
2022-10-25T10:21:25.216Z,47.79
2022-10-25T10:26:31.664Z,47.68
2022-10-25T10:31:35.741Z,47.36
2022-10-25T10:36:37.139Z,47.08
2022-10-25T10:41:38.541Z,46.83
2022-10-25T10:46:46.390Z,46.53
2022-10-25T10:51:47.762Z,46.44
2022-10-25T10:57:05.159Z,46.10
2022-10-25T11:02:31.110Z,46.28
2022-10-25T11:07:34.322Z,46.14
2022-10-25T11:12:40.197Z,46.01
2022-10-25T11:17:49.743Z,45.92
2022-10-25T11:22:57.117Z,46.11
2022-10-25T11:28:22.899Z,46.34
2022-10-25T11:33:29.257Z,45.84
2022-10-25T11:38:55.364Z,45.80
2022-10-25T11:44:41.747Z,46.16
2022-10-25T11:49:57.073Z,46.29
2022-10-25T11:55:21.893Z,45.92
2022-10-25T12:00:24.525Z,46.01
2022-10-25T12:05:31.323Z,45.86
2022-10-25T12:10:35.977Z,45.77
2022-10-25T12:15:46.462Z,45.84
2022-10-25T12:20:47.958Z,45.71
2022-10-25T12:26:00.597Z,45.41
2022-10-25T12:31:06.936Z,45.01
2022-10-25T12:36:38.310Z,44.88
2022-10-25T12:41:40.169Z,44.84
2022-10-25T12:46:51.344Z,44.27
2022-10-25T12:51:57.034Z,44.62
2022-10-25T12:57:27.870Z,44.90
2022-10-25T13:03:10.227Z,44.33
2022-10-25T13:08:11.987Z,44.50
2022-10-25T13:13:17.879Z,44.31
2022-10-25T13:18:34.423Z,44.72
2022-10-25T13:23:55.981Z,44.08
2022-10-25T13:28:59.620Z,43.97
2022-10-25T13:34:12.846Z,43.58
2022-10-25T13:39:16.120Z,44.26
2022-10-25T13:44:26.822Z,43.74
2022-10-25T13:49:34.885Z,43.55
2022-10-25T13:54:45.653Z,43.72
2022-10-25T13:59:49.884Z,44.52
2022-10-25T14:04:51.350Z,44.73
2022-10-25T14:09:53.273Z,44.94
2022-10-25T14:15:15.169Z,45.17
2022-10-25T14:20:29.545Z,45.21
2022-10-25T14:25:31.924Z,45.28
2022-10-25T14:30:40.187Z,45.35
2022-10-25T14:35:49.229Z,45.74
2022-10-25T14:41:01.101Z,45.74
2022-10-25T14:46:15.928Z,45.69
2022-10-25T14:51:21.580Z,45.71
2022-10-25T14:56:33.399Z,45.79
2022-10-25T15:01:34.865Z,46.19
2022-10-25T15:06:36.337Z,46.43
2022-10-25T15:11:37.705Z,46.20
2022-10-25T15:16:43.853Z,46.02
2022-10-25T15:21:46.637Z,46.38
2022-10-25T15:27:05.642Z,46.50
2022-10-25T15:32:09.310Z,46.70
2022-10-25T15:37:12.217Z,46.54
2022-10-25T15:42:15.342Z,46.70
2022-10-25T15:47:29.172Z,46.43
2022-10-25T15:52:30.618Z,46.32
2022-10-25T15:57:32.016Z,46.62
2022-10-25T16:02:33.373Z,46.73
2022-10-25T16:07:34.736Z,46.44
2022-10-25T16:12:36.109Z,46.27
2022-10-25T16:17:37.485Z,46.57
2022-10-25T16:22:38.850Z,46.47
2022-10-25T16:27:41.082Z,46.48
2022-10-25T16:32:42.509Z,46.23
2022-10-25T16:37:43.875Z,46.18
2022-10-25T16:42:45.408Z,46.13
2022-10-25T16:47:46.930Z,46.14
2022-10-25T16:52:51.425Z,46.07
2022-10-25T16:57:52.819Z,46.29
2022-10-25T17:02:54.984Z,46.08
2022-10-25T17:07:56.406Z,46.20
2022-10-25T17:13:03.662Z,46.17
2022-10-25T17:18:05.024Z,46.38
2022-10-25T17:23:06.421Z,46.23
2022-10-25T17:28:08.384Z,46.42
2022-10-25T17:33:09.741Z,46.42
2022-10-25T17:38:11.100Z,46.29
2022-10-25T17:43:13.709Z,46.34
2022-10-25T17:48:15.622Z,46.54
2022-10-25T17:53:16.980Z,46.57
2022-10-25T17:58:18.336Z,46.67
2022-10-25T18:03:19.740Z,46.53
2022-10-25T18:08:21.170Z,46.66
2022-10-25T18:13:24.603Z,46.62
2022-10-25T18:18:26.019Z,46.51
2022-10-25T18:23:27.406Z,46.72
2022-10-25T18:28:28.772Z,46.63
2022-10-25T18:33:30.724Z,46.75
2022-10-25T18:38:32.091Z,46.68
2022-10-25T18:43:33.494Z,46.78
2022-10-25T18:48:34.858Z,46.66
2022-10-25T18:53:36.313Z,46.87
2022-10-25T18:58:38.064Z,46.76
2022-10-25T19:03:39.708Z,46.84
2022-10-25T19:08:41.075Z,46.90
2022-10-25T19:13:45.102Z,47.09
2022-10-25T19:18:49.168Z,46.84
2022-10-25T19:23:53.917Z,46.81
2022-10-25T19:28:59.005Z,46.85
2022-10-25T19:34:02.865Z,46.85
2022-10-25T19:39:04.341Z,46.90
2022-10-25T19:44:05.702Z,46.92
2022-10-25T19:49:07.056Z,46.91
2022-10-25T19:54:08.492Z,46.87
2022-10-25T19:59:10.297Z,46.84
2022-10-25T20:04:13.210Z,46.80
2022-10-25T20:09:14.568Z,46.72
2022-10-25T20:14:15.936Z,46.88
2022-10-25T20:19:17.303Z,46.83
2022-10-25T20:24:18.786Z,46.89
2022-10-25T20:29:22.667Z,46.88
2022-10-25T20:34:24.184Z,46.75
2022-10-25T20:39:25.557Z,46.76
2022-10-25T20:44:26.941Z,46.79
2022-10-25T20:49:28.314Z,46.97
2022-10-25T20:54:29.733Z,46.58
2022-10-25T20:59:31.689Z,46.56
2022-10-25T21:09:54.384Z,46.64
2022-10-25T21:14:55.745Z,46.55
2022-10-25T21:19:57.102Z,46.57
2022-10-25T21:24:58.506Z,46.54
2022-10-25T21:29:59.862Z,46.59
2022-10-25T21:35:01.661Z,46.26
2022-10-25T21:40:03.025Z,46.40
2022-10-25T21:45:04.557Z,46.36
2022-10-25T21:50:06.595Z,46.54
2022-10-25T21:55:08.381Z,46.58
2022-10-25T22:00:10.839Z,46.37
2022-10-25T22:05:12.210Z,46.14
2022-10-25T22:10:13.608Z,46.22
2022-10-25T22:15:16.003Z,46.11
2022-10-25T22:20:17.358Z,46.43
2022-10-25T22:25:18.717Z,46.26
2022-10-25T22:30:20.077Z,46.30
2022-10-25T22:35:21.441Z,46.07
2022-10-25T22:40:22.796Z,45.92
2022-10-25T22:45:24.161Z,46.07
2022-10-25T22:50:25.545Z,46.11
2022-10-25T22:55:26.905Z,46.15
2022-10-25T23:00:28.262Z,46.14
2022-10-25T23:05:29.730Z,45.63
2022-10-25T23:10:31.085Z,45.72
2022-10-25T23:15:32.459Z,45.22
2022-10-25T23:20:33.858Z,45.48
2022-10-25T23:25:35.217Z,45.12
2022-10-25T23:30:36.640Z,45.37
2022-10-25T23:35:40.188Z,45.76
2022-10-25T23:40:45.637Z,45.71
2022-10-25T23:45:47.005Z,45.70
2022-10-25T23:50:57.637Z,45.93
2022-10-25T23:55:59.025Z,45.95
